• Join FlightAware (Why Join?)
  • Login
  • US Flag 
02:44PM EST


 

Airport Tracker/Info


-or-


 

Live Flight TrackerFlight Track Log ✈ KAP720 ✈ 07-May-2013 ✈ KACK - KBOS

Flight Track Log - Related Links

Times and Time Zones

All times are in EDT time to prevent confusion due to time zone crossing. See the KAP720 flight status page for this flight to view local times or setup timezone preferences in your user account.

Time Position Orientation Groundspeed Altitude Reporting Facility
EDT Latitude Longitude Course Direction KTS MPH feet Rate Location/Type
10:58AM 41.3677 -70.1464 331° Northwest  Level FlightAware Approximate
10:59AM 41.3868 -70.1608 331° Northwest  Level FlightAware Approximate
11:00AM 41.4059 -70.1752 331° Northwest  Level FlightAware Approximate
11:01AM 41.4190 -70.1857 323° Northwest  Level FlightAware Approximate
11:02AM 41.4366 -70.2032 323° Northwest  Level FlightAware Approximate
11:03AM 41.4544 -70.2201 330° Northwest  Level FlightAware Approximate
11:04AM 41.4734 -70.2347 330° Northwest  Level FlightAware Approximate
11:05AM 41.4924 -70.2494 330° Northwest  Level FlightAware Approximate
11:06AM 41.5114 -70.2641 330° Northwest  Level FlightAware Approximate
11:07AM 41.5303 -70.2787 330° Northwest  Level FlightAware Approximate
11:07AM 41.7500 -70.5333 330° Northwest 165 190 4,000  Level KA90
11:07AM 41.7667 -70.5667 304° West 167 192 4,000  Level KA90
11:08AM 41.5493 -70.2934 330° Northwest  Level FlightAware Approximate
11:08AM 41.8167 -70.6000 334° Northwest 167 192 4,000  Level KA90
11:09AM 41.5683 -70.3081 330° Northwest  Level FlightAware Approximate
11:09AM 41.8500 -70.6167 340° North 167 192 4,000  Level KA90
11:10AM 41.5873 -70.3228 330° Northwest  Level FlightAware Approximate
11:10AM 41.8833 -70.6667 312° West 166 191 4,000  Level KA90
11:11AM 41.6062 -70.3375 330° Northwest  Level FlightAware Approximate
11:11AM 41.9167 -70.6833 340° North 165 190 4,000  Level KA90
11:12AM 41.6252 -70.3522 330° Northwest  Level FlightAware Approximate
11:12AM 41.9667 -70.7167 334° Northwest 175 201 4,000  Level KA90
11:13AM 42.0000 -70.7500 323° Northwest 180 207 4,100  Climbing KA90
11:14AM 42.0333 -70.8000 312° West 167 192 4,000 -60 Descending KA90
11:15AM 42.0667 -70.8500 312° West 167 192 4,000  Level KA90
11:16AM 42.1000 -70.8833 323° Northwest 163 188 4,000  Level KA90
11:17AM 42.1333 -70.9500 304° West 164 189 4,100  Climbing KA90
11:18AM 42.1500 -70.9833 304° West 168 193 4,000 -60 Descending KA90
11:19AM 42.1833 -71.0333 312° West 162 186 4,000  Level KA90
11:20AM 42.2167 -71.0500 340° North 168 193 4,000  Level KA90
11:21AM 42.2667 -71.0667 346° North 168 193 4,000  Level KA90
11:22AM 42.3167 -71.0667 360° North 167 192 4,000  Level KA90
11:23AM 42.3667 -71.0833 346° North 166 191 4,000  Level KA90
11:24AM 42.4000 -71.1000 340° North 166 191 4,100 -60 Climbing KA90
11:25AM 42.4500 -71.1000 360° North 170 196 3,900 -360 Descending KA90
11:26AM 42.4667 -71.0500 66° East 167 192 3,400 -1,020 Descending KA90
11:27AM 42.4333 -70.9833 124° Southeast 156 180 1,900 -1,200 Descending KA90
11:28AM 42.4167 -70.9833 180° South 123 142 1,000 -1,020 Descending KA90
11:30AM 42.3652 -71.0054 144° Southeast  Level Estimated
11:37AM 42.3630 -71.0064 144° Southeast  Level Estimated